createdAt,value
2023-01-04T00:00:24.610Z,2.43
2023-01-04T00:01:24.524Z,2.38
2023-01-04T00:02:24.719Z,2.38
2023-01-04T00:03:24.702Z,2.35
2023-01-04T00:04:24.567Z,2.28
2023-01-04T00:05:24.541Z,2.28
2023-01-04T00:06:24.655Z,2.28
2023-01-04T00:07:24.565Z,2.30
2023-01-04T00:08:24.566Z,2.24
2023-01-04T00:09:24.572Z,2.20
2023-01-04T00:10:24.582Z,2.18
2023-01-04T00:11:24.578Z,2.10
2023-01-04T00:12:24.589Z,2.16
2023-01-04T00:13:24.616Z,2.12
2023-01-04T00:14:24.613Z,2.10
2023-01-04T00:15:24.611Z,2.10
2023-01-04T00:16:24.649Z,2.16
2023-01-04T00:17:24.617Z,2.14
2023-01-04T00:18:24.634Z,2.18
2023-01-04T00:19:24.787Z,2.12
2023-01-04T00:20:24.635Z,2.21
2023-01-04T00:21:24.657Z,2.10
2023-01-04T00:22:24.648Z,2.14
2023-01-04T00:23:24.651Z,2.12
2023-01-04T00:24:24.657Z,2.05
2023-01-04T00:25:24.683Z,2.12
2023-01-04T00:26:24.692Z,2.17
2023-01-04T00:27:24.674Z,2.03
2023-01-04T00:28:24.683Z,2.16
2023-01-04T00:29:24.701Z,2.12
2023-01-04T00:30:24.696Z,2.05
2023-01-04T00:31:24.817Z,2.00
2023-01-04T00:32:24.707Z,2.06
2023-01-04T00:33:24.707Z,2.05
2023-01-04T00:34:24.724Z,2.02
2023-01-04T00:35:44.617Z,2.05
2023-01-04T00:36:24.749Z,1.99
2023-01-04T00:37:24.734Z,2.03
2023-01-04T00:38:24.738Z,2.02
2023-01-04T00:39:24.742Z,2.00
2023-01-04T00:40:24.751Z,1.95
2023-01-04T00:41:56.938Z,1.90
2023-01-04T00:42:24.761Z,1.98
2023-01-04T00:43:24.764Z,1.93
2023-01-04T00:44:24.776Z,1.83
2023-01-04T00:45:24.793Z,1.83
2023-01-04T00:46:24.862Z,1.84
2023-01-04T00:47:24.790Z,1.84
2023-01-04T00:48:24.796Z,1.86
2023-01-04T00:49:24.807Z,1.90
2023-01-04T00:50:24.839Z,1.88
2023-01-04T00:51:24.828Z,1.98
2023-01-04T00:52:24.824Z,1.93
2023-01-04T00:53:24.821Z,2.00
2023-01-04T00:54:24.833Z,1.90
2023-01-04T00:55:24.835Z,1.90
2023-01-04T00:56:24.858Z,1.88
2023-01-04T00:57:24.847Z,1.90
2023-01-04T00:58:24.867Z,1.90
2023-01-04T00:59:24.856Z,1.91
2023-01-04T01:00:24.867Z,1.90
2023-01-04T01:01:24.978Z,1.90
2023-01-04T01:02:25.110Z,1.81
2023-01-04T01:03:25.057Z,1.90
2023-01-04T01:04:25.043Z,1.87
2023-01-04T01:05:24.892Z,1.80
2023-01-04T01:06:24.899Z,1.80
2023-01-04T01:07:24.915Z,1.90
2023-01-04T01:08:24.924Z,1.86
2023-01-04T01:09:24.911Z,1.87
2023-01-04T01:10:24.927Z,1.84
2023-01-04T01:11:24.932Z,1.84
2023-01-04T01:12:24.944Z,1.88
2023-01-04T01:13:24.939Z,1.81
2023-01-04T01:14:25.019Z,1.84
2023-01-04T01:15:24.953Z,1.80
2023-01-04T01:16:51.860Z,1.91
2023-01-04T01:17:24.980Z,1.84
2023-01-04T01:18:24.968Z,1.87
2023-01-04T01:19:24.979Z,1.81
2023-01-04T01:20:24.983Z,1.86
2023-01-04T01:21:24.990Z,1.83
2023-01-04T01:22:25.000Z,1.83
2023-01-04T01:23:25.092Z,1.76
2023-01-04T01:24:25.012Z,1.70
2023-01-04T01:25:25.016Z,1.83
2023-01-04T01:26:25.017Z,1.76
2023-01-04T01:27:25.023Z,1.72
2023-01-04T01:28:25.027Z,1.70
2023-01-04T01:29:25.043Z,1.69
2023-01-04T01:30:25.038Z,1.68
2023-01-04T01:31:25.164Z,1.70
2023-01-04T01:32:25.049Z,1.69
2023-01-04T01:33:25.120Z,1.66
2023-01-04T01:34:25.075Z,1.77
2023-01-04T01:35:25.071Z,1.70
2023-01-04T01:36:25.071Z,1.63
2023-01-04T01:37:25.082Z,1.66
2023-01-04T01:38:25.082Z,1.60
2023-01-04T01:39:25.095Z,1.62
2023-01-04T01:40:25.097Z,1.42
2023-01-04T01:41:25.102Z,1.45
2023-01-04T01:42:25.101Z,1.47
2023-01-04T01:43:25.105Z,1.48
2023-01-04T01:44:25.118Z,1.52
2023-01-04T01:45:25.122Z,1.47
2023-01-04T01:46:25.196Z,1.40
2023-01-04T01:47:25.138Z,1.51
2023-01-04T01:48:25.143Z,1.50
2023-01-04T01:49:25.169Z,1.45
2023-01-04T01:50:25.157Z,1.45
2023-01-04T01:51:25.156Z,1.45
2023-01-04T01:52:25.163Z,1.47
2023-01-04T01:53:25.160Z,1.45
2023-01-04T01:54:25.169Z,1.45
2023-01-04T01:55:25.179Z,1.50
2023-01-04T01:56:25.181Z,1.45
2023-01-04T01:57:25.228Z,1.54
2023-01-04T01:58:25.191Z,1.47
2023-01-04T01:59:25.198Z,1.54
2023-01-04T02:00:25.219Z,1.45
2023-01-04T02:01:25.297Z,1.48
2023-01-04T02:02:25.496Z,1.45
2023-01-04T02:03:25.348Z,1.44
2023-01-04T02:04:25.225Z,1.45
2023-01-04T02:05:25.255Z,1.44
2023-01-04T02:06:25.234Z,1.48
2023-01-04T02:07:25.237Z,1.42
2023-01-04T02:08:25.239Z,1.42
2023-01-04T02:09:25.257Z,1.48
2023-01-04T02:10:25.249Z,1.41
2023-01-04T02:11:25.271Z,1.42
2023-01-04T02:12:25.262Z,1.47
2023-01-04T02:13:25.280Z,1.45
2023-01-04T02:14:25.272Z,1.42
2023-01-04T02:15:25.285Z,1.45
2023-01-04T02:16:25.329Z,1.41
2023-01-04T02:17:25.286Z,1.42
2023-01-04T02:18:25.305Z,1.40
2023-01-04T02:19:25.303Z,1.50
2023-01-04T02:20:25.314Z,1.48
2023-01-04T02:21:25.328Z,1.54
2023-01-04T02:22:25.312Z,1.51
2023-01-04T02:23:25.322Z,1.42
2023-01-04T02:24:25.331Z,1.48
2023-01-04T02:25:25.332Z,1.50
2023-01-04T02:26:25.344Z,1.51
2023-01-04T02:27:25.339Z,1.48
2023-01-04T02:28:25.345Z,1.45
2023-01-04T02:29:25.351Z,1.44
2023-01-04T02:30:25.402Z,1.51
2023-01-04T02:31:25.455Z,1.44
2023-01-04T02:32:25.360Z,1.45
2023-01-04T02:33:25.373Z,1.41
2023-01-04T02:34:25.383Z,1.41
2023-01-04T02:35:25.383Z,1.52
2023-01-04T02:36:25.387Z,1.40
2023-01-04T02:37:25.417Z,1.41
2023-01-04T02:38:25.396Z,1.50
2023-01-04T02:39:25.403Z,1.37
2023-01-04T02:40:25.406Z,1.45
2023-01-04T02:41:25.414Z,1.44
2023-01-04T02:42:25.424Z,1.40
2023-01-04T02:43:25.460Z,1.41
2023-01-04T02:44:25.535Z,1.41
2023-01-04T02:45:25.435Z,1.37
2023-01-04T02:46:25.463Z,1.40
2023-01-04T02:47:25.443Z,1.59
2023-01-04T02:48:25.448Z,1.51
2023-01-04T02:49:25.456Z,1.44
2023-01-04T02:50:25.457Z,1.44
2023-01-04T02:51:25.473Z,1.48
2023-01-04T02:52:25.467Z,1.48
2023-01-04T02:53:25.494Z,1.48
2023-01-04T02:54:25.478Z,1.47
2023-01-04T02:55:25.487Z,1.45
2023-01-04T02:56:25.487Z,1.32
2023-01-04T02:57:25.495Z,1.44
2023-01-04T02:58:25.498Z,1.40
2023-01-04T02:59:25.507Z,1.42
2023-01-04T03:00:25.510Z,1.40
2023-01-04T03:01:25.641Z,1.50
2023-01-04T03:02:25.700Z,1.42
2023-01-04T03:03:25.630Z,1.42
2023-01-04T03:04:25.531Z,1.42
2023-01-04T03:05:25.537Z,1.40
2023-01-04T03:06:25.544Z,1.47
2023-01-04T03:07:25.548Z,1.37
2023-01-04T03:08:25.577Z,1.33
2023-01-04T03:09:25.578Z,1.40
2023-01-04T03:10:25.574Z,1.36
2023-01-04T03:11:25.569Z,1.36
2023-01-04T03:12:25.576Z,1.34
2023-01-04T03:13:25.576Z,1.40
2023-01-04T03:14:32.112Z,1.34
2023-01-04T03:15:25.609Z,1.40
2023-01-04T03:16:25.657Z,1.32
2023-01-04T03:17:25.602Z,1.37
2023-01-04T03:18:25.604Z,1.29
2023-01-04T03:19:25.609Z,1.34
2023-01-04T03:20:25.625Z,1.36
2023-01-04T03:21:25.621Z,1.33
2023-01-04T03:22:25.624Z,1.37
2023-01-04T03:23:25.632Z,1.29
2023-01-04T03:24:25.635Z,1.24
2023-01-04T03:25:25.769Z,1.24
2023-01-04T03:26:25.644Z,1.32
2023-01-04T03:27:25.651Z,1.32
2023-01-04T03:28:25.671Z,1.32
2023-01-04T03:29:25.683Z,1.24
2023-01-04T03:30:25.666Z,1.29
2023-01-04T03:31:25.731Z,1.29
2023-01-04T03:32:25.674Z,1.34
2023-01-04T03:33:25.684Z,1.34
2023-01-04T03:34:25.697Z,1.33
2023-01-04T03:35:25.704Z,1.34
2023-01-04T03:36:25.693Z,1.32
2023-01-04T03:37:25.709Z,1.27
2023-01-04T03:38:25.711Z,1.30
2023-01-04T03:39:25.711Z,1.22
2023-01-04T03:40:25.718Z,1.29
2023-01-04T03:41:25.741Z,1.24
2023-01-04T03:42:25.726Z,1.20
2023-01-04T03:43:25.737Z,1.11
2023-01-04T03:44:25.737Z,1.20
2023-01-04T03:45:25.743Z,1.23
2023-01-04T03:46:25.820Z,1.14
2023-01-04T03:47:25.770Z,1.23
2023-01-04T03:48:25.755Z,1.22
2023-01-04T03:49:25.783Z,1.22
2023-01-04T03:50:25.766Z,1.24
2023-01-04T03:51:25.780Z,1.09
2023-01-04T03:52:25.775Z,1.20
2023-01-04T03:53:25.783Z,1.14
2023-01-04T03:54:25.787Z,1.18
2023-01-04T03:55:25.795Z,1.14
2023-01-04T03:56:25.810Z,1.24
2023-01-04T03:57:25.825Z,1.23
2023-01-04T03:58:25.807Z,1.09
2023-01-04T03:59:25.832Z,1.18
2023-01-04T04:00:25.885Z,1.18
2023-01-04T04:01:26.040Z,1.14
2023-01-04T04:02:25.950Z,1.11
2023-01-04T04:03:25.878Z,1.12
2023-01-04T04:04:26.011Z,1.09
2023-01-04T04:05:25.843Z,1.12
2023-01-04T04:06:25.858Z,1.12
2023-01-04T04:07:25.852Z,1.11
2023-01-04T04:08:25.861Z,1.02
2023-01-04T04:09:25.873Z,1.14
2023-01-04T04:10:25.872Z,1.12
2023-01-04T04:11:25.874Z,1.05
2023-01-04T04:12:25.882Z,1.05
2023-01-04T04:13:25.901Z,1.06
2023-01-04T04:14:25.906Z,1.12
2023-01-04T04:15:25.901Z,1.04
2023-01-04T04:16:25.959Z,1.15
2023-01-04T04:17:25.901Z,1.15
2023-01-04T04:18:25.904Z,1.16
2023-01-04T04:19:25.911Z,1.20
2023-01-04T04:20:25.929Z,1.16
2023-01-04T04:21:25.933Z,1.18
2023-01-04T04:22:25.932Z,1.23
2023-01-04T04:23:25.935Z,1.20
2023-01-04T04:24:25.940Z,1.16
2023-01-04T04:25:25.941Z,1.16
2023-01-04T04:26:25.944Z,1.16
2023-01-04T04:27:25.960Z,1.16
2023-01-04T04:28:25.953Z,1.12
2023-01-04T04:29:25.979Z,1.11
2023-01-04T04:30:25.968Z,1.12
2023-01-04T04:31:26.031Z,1.11
2023-01-04T04:32:25.976Z,1.14
2023-01-04T04:33:25.983Z,1.12
2023-01-04T04:34:25.983Z,1.00
2023-01-04T04:35:26.000Z,1.05
2023-01-04T04:36:26.000Z,1.04
2023-01-04T04:37:26.001Z,1.02
2023-01-04T04:38:26.003Z,0.98
2023-01-04T04:39:26.013Z,1.02
2023-01-04T04:40:26.055Z,1.06
2023-01-04T04:41:26.028Z,0.98
2023-01-04T04:42:26.032Z,0.98
2023-01-04T04:43:26.029Z,1.00
2023-01-04T04:44:26.036Z,0.96
2023-01-04T04:45:26.146Z,0.97
2023-01-04T04:46:26.073Z,0.87
2023-01-04T04:47:26.048Z,0.90
2023-01-04T04:48:26.056Z,0.86
2023-01-04T04:49:26.087Z,0.86
2023-01-04T04:50:26.104Z,0.83
2023-01-04T04:51:26.086Z,0.80
2023-01-04T04:52:26.074Z,0.83
2023-01-04T04:53:26.077Z,0.84
2023-01-04T04:54:26.106Z,0.79
2023-01-04T04:55:26.087Z,0.86
2023-01-04T04:56:26.125Z,0.88
2023-01-04T04:57:26.106Z,0.80
2023-01-04T04:58:26.126Z,0.83
2023-01-04T04:59:26.109Z,0.87
2023-01-04T05:00:26.107Z,0.80
2023-01-04T05:01:26.281Z,0.83
2023-01-04T05:02:26.541Z,0.83
2023-01-04T05:03:26.260Z,0.88
2023-01-04T05:04:26.129Z,0.78
2023-01-04T05:05:26.154Z,0.78
2023-01-04T05:06:26.143Z,0.75
2023-01-04T05:07:26.147Z,0.72
2023-01-04T05:08:26.146Z,0.73
2023-01-04T05:09:26.189Z,0.75
2023-01-04T05:10:26.172Z,0.78
2023-01-04T05:11:26.197Z,0.76
2023-01-04T05:12:26.166Z,0.78
2023-01-04T05:13:26.170Z,0.76
2023-01-04T05:14:26.176Z,0.69
2023-01-04T05:15:26.226Z,0.70
2023-01-04T05:16:26.252Z,0.75
2023-01-04T05:17:26.208Z,0.76
2023-01-04T05:18:26.193Z,0.69
2023-01-04T05:19:26.203Z,0.78
2023-01-04T05:20:26.201Z,0.76
2023-01-04T05:21:26.217Z,0.80
2023-01-04T05:22:26.211Z,0.80
2023-01-04T05:23:26.231Z,0.84
2023-01-04T05:24:26.251Z,0.88
2023-01-04T05:25:26.241Z,0.98
2023-01-04T05:26:26.229Z,0.88
2023-01-04T05:27:26.241Z,0.97
2023-01-04T05:28:26.239Z,0.97
2023-01-04T05:29:26.253Z,0.97
2023-01-04T05:30:26.252Z,0.86
2023-01-04T05:31:26.321Z,0.93
2023-01-04T05:32:26.367Z,0.84
2023-01-04T05:33:26.293Z,0.96
2023-01-04T05:34:26.274Z,0.84
2023-01-04T05:35:26.280Z,0.79
2023-01-04T05:36:26.279Z,0.87
2023-01-04T05:37:26.293Z,0.87
2023-01-04T05:38:26.324Z,0.88
2023-01-04T05:39:26.307Z,0.96
2023-01-04T05:40:26.295Z,0.93
2023-01-04T05:41:26.311Z,0.90
2023-01-04T05:42:26.341Z,0.90
2023-01-04T05:43:26.312Z,0.84
2023-01-04T05:44:26.315Z,0.90
2023-01-04T05:45:26.326Z,0.91
2023-01-04T05:46:26.412Z,0.84
2023-01-04T05:47:26.340Z,0.87
2023-01-04T05:48:26.335Z,0.93
2023-01-04T05:49:26.382Z,0.88
2023-01-04T05:50:26.377Z,0.84
2023-01-04T05:51:26.356Z,0.87
2023-01-04T05:52:26.358Z,0.83
2023-01-04T05:53:26.364Z,0.88
2023-01-04T05:54:26.371Z,0.86
2023-01-04T05:55:26.367Z,0.87
2023-01-04T05:56:26.376Z,0.91
2023-01-04T05:57:26.380Z,0.96
2023-01-04T05:58:26.384Z,0.93
2023-01-04T05:59:26.468Z,0.91
2023-01-04T06:00:26.387Z,0.96
2023-01-04T06:01:26.436Z,0.83
2023-01-04T06:02:26.536Z,0.91
2023-01-04T06:03:26.604Z,0.84
2023-01-04T06:04:26.411Z,0.86
2023-01-04T06:05:26.460Z,0.84
2023-01-04T06:06:26.420Z,0.88
2023-01-04T06:07:26.448Z,0.86
2023-01-04T06:08:26.431Z,0.80
2023-01-04T06:09:26.437Z,0.73
2023-01-04T06:10:26.444Z,0.79
2023-01-04T06:11:27.924Z,0.78
2023-01-04T06:12:26.459Z,0.91
2023-01-04T06:13:26.455Z,0.84
2023-01-04T06:14:26.457Z,0.78
2023-01-04T06:15:26.471Z,0.88
2023-01-04T06:16:26.495Z,0.80
2023-01-04T06:17:26.473Z,0.87
2023-01-04T06:18:26.475Z,0.80
2023-01-04T06:19:26.487Z,0.79
2023-01-04T06:20:26.487Z,0.79
2023-01-04T06:21:26.522Z,0.83
2023-01-04T06:22:26.513Z,0.80
2023-01-04T06:23:26.504Z,0.79
2023-01-04T06:24:26.520Z,0.76
2023-01-04T06:25:26.516Z,0.75
2023-01-04T06:26:26.521Z,0.72
2023-01-04T06:27:26.516Z,0.70
2023-01-04T06:28:26.557Z,0.78
2023-01-04T06:29:26.528Z,0.80
2023-01-04T06:30:26.623Z,0.76
2023-01-04T06:31:26.580Z,0.73
2023-01-04T06:32:26.547Z,0.65
2023-01-04T06:33:26.547Z,0.70
2023-01-04T06:34:30.872Z,0.76
2023-01-04T06:35:26.563Z,0.72
2023-01-04T06:36:26.569Z,0.79
2023-01-04T06:37:26.584Z,0.80
2023-01-04T06:38:26.576Z,0.73
2023-01-04T06:39:26.573Z,0.79
2023-01-04T06:40:26.583Z,0.76
2023-01-04T06:41:26.589Z,0.75
2023-01-04T06:42:26.618Z,0.73
2023-01-04T06:43:26.599Z,0.68
2023-01-04T06:44:26.600Z,0.68
2023-01-04T06:45:26.604Z,0.75
2023-01-04T06:46:26.657Z,0.72
2023-01-04T06:47:26.616Z,0.72
2023-01-04T06:48:26.620Z,0.76
2023-01-04T06:49:26.620Z,0.75
2023-01-04T06:50:26.628Z,0.80
2023-01-04T06:51:26.627Z,0.66
2023-01-04T06:52:26.640Z,0.76
2023-01-04T06:53:26.660Z,0.75
2023-01-04T06:54:26.646Z,0.66
2023-01-04T06:55:26.696Z,0.66
2023-01-04T06:56:26.654Z,0.65
2023-01-04T06:57:26.656Z,0.69
2023-01-04T06:58:26.690Z,0.60
2023-01-04T06:59:26.671Z,0.70
2023-01-04T07:00:26.674Z,0.79
2023-01-04T07:01:26.866Z,0.83
2023-01-04T07:02:26.974Z,0.78
2023-01-04T07:03:26.691Z,0.72
2023-01-04T07:04:26.779Z,0.78
2023-01-04T07:05:26.692Z,0.83
2023-01-04T07:06:26.703Z,0.84
2023-01-04T07:07:26.702Z,0.73
2023-01-04T07:08:26.712Z,0.78
2023-01-04T07:09:26.853Z,0.83
2023-01-04T07:10:26.719Z,0.80
2023-01-04T07:11:26.720Z,0.86
2023-01-04T07:12:26.746Z,0.84
2023-01-04T07:13:26.749Z,0.83
2023-01-04T07:14:26.738Z,0.76
2023-01-04T07:15:39.219Z,0.79
2023-01-04T07:16:26.880Z,0.72
2023-01-04T07:17:30.032Z,0.79
2023-01-04T07:18:26.770Z,0.83
2023-01-04T07:19:26.782Z,0.76
2023-01-04T07:20:26.765Z,0.79
2023-01-04T07:21:26.767Z,0.79
2023-01-04T07:22:26.777Z,0.84
2023-01-04T07:23:26.779Z,0.97
2023-01-04T07:24:30.341Z,0.96
2023-01-04T07:25:26.829Z,0.94
2023-01-04T07:26:26.795Z,0.97
2023-01-04T07:27:26.805Z,1.00
2023-01-04T07:28:26.816Z,0.96
2023-01-04T07:29:26.816Z,0.98
2023-01-04T07:30:26.813Z,1.05
2023-01-04T07:31:26.859Z,1.00
2023-01-04T07:32:26.822Z,1.06
2023-01-04T07:33:26.834Z,1.12
2023-01-04T07:34:26.827Z,1.08
2023-01-04T07:35:26.936Z,1.06
2023-01-04T07:36:26.843Z,1.16
2023-01-04T07:37:26.839Z,1.18
2023-01-04T07:38:26.850Z,1.14
2023-01-04T07:39:26.852Z,1.22
2023-01-04T07:40:26.884Z,1.18
2023-01-04T07:41:26.996Z,1.26
2023-01-04T07:42:26.867Z,1.24
2023-01-04T07:43:28.581Z,1.20
2023-01-04T07:44:26.880Z,1.30
2023-01-04T07:45:26.963Z,1.34
2023-01-04T07:46:26.939Z,1.36
2023-01-04T07:47:26.892Z,1.34
2023-01-04T07:48:26.899Z,1.37
2023-01-04T07:49:26.933Z,1.40
2023-01-04T07:50:26.929Z,1.42
2023-01-04T07:51:26.908Z,1.45
2023-01-04T07:52:26.918Z,1.41
2023-01-04T07:53:26.918Z,1.42
2023-01-04T07:54:26.958Z,1.41
2023-01-04T07:55:26.949Z,1.54
2023-01-04T07:56:26.935Z,1.51
2023-01-04T07:57:26.955Z,1.50
2023-01-04T07:58:26.944Z,1.55
2023-01-04T07:59:26.948Z,1.59
2023-01-04T08:00:27.016Z,1.55
2023-01-04T08:01:27.058Z,1.58
2023-01-04T08:02:27.068Z,1.59
2023-01-04T08:03:26.969Z,1.65
2023-01-04T08:04:32.763Z,1.68
2023-01-04T08:05:26.983Z,1.76
2023-01-04T08:06:26.987Z,1.81
2023-01-04T08:07:26.990Z,1.84
2023-01-04T08:08:26.997Z,1.86
2023-01-04T08:09:27.011Z,1.84
2023-01-04T08:10:27.065Z,1.80
2023-01-04T08:11:27.009Z,1.88
2023-01-04T08:12:27.019Z,1.98
2023-01-04T08:13:27.105Z,2.06
2023-01-04T08:14:27.027Z,2.06
2023-01-04T08:15:27.034Z,2.05
2023-01-04T08:16:27.120Z,2.03
2023-01-04T08:17:27.039Z,2.18
2023-01-04T08:18:27.052Z,2.17
2023-01-04T08:19:27.056Z,2.10
2023-01-04T08:20:27.064Z,2.10
2023-01-04T08:21:27.061Z,2.14
2023-01-04T08:22:27.070Z,2.18
2023-01-04T08:23:27.070Z,2.17
2023-01-04T08:24:27.080Z,2.18
2023-01-04T08:25:27.080Z,2.27
2023-01-04T08:26:27.095Z,2.17
2023-01-04T08:27:27.091Z,2.14
2023-01-04T08:28:27.101Z,2.23
2023-01-04T08:29:32.870Z,2.16
2023-01-04T08:30:27.111Z,2.21
2023-01-04T08:31:27.183Z,2.23
2023-01-04T08:32:27.229Z,2.30
2023-01-04T08:33:27.124Z,2.27
2023-01-04T08:34:27.132Z,2.28
2023-01-04T08:35:27.135Z,2.36
2023-01-04T08:36:27.975Z,2.41
2023-01-04T08:37:27.161Z,2.43
2023-01-04T08:38:58.887Z,2.48
2023-01-04T08:39:27.156Z,2.56
2023-01-04T08:40:59.856Z,2.56
2023-01-04T08:41:57.460Z,2.60
2023-01-04T08:42:31.606Z,2.63
2023-01-04T08:43:27.188Z,2.77
2023-01-04T08:44:27.191Z,2.84
2023-01-04T08:45:27.299Z,2.96
2023-01-04T08:46:27.266Z,3.05
2023-01-04T08:47:27.208Z,3.05
2023-01-04T08:48:27.212Z,3.05
2023-01-04T08:49:27.225Z,3.20
2023-01-04T08:50:27.219Z,3.31
2023-01-04T08:51:27.239Z,3.32
2023-01-04T08:52:27.239Z,3.47
2023-01-04T08:53:27.238Z,3.48
2023-01-04T08:54:27.256Z,3.51
2023-01-04T08:55:27.251Z,3.61
2023-01-04T08:56:27.262Z,3.68
2023-01-04T08:57:27.276Z,3.65
2023-01-04T08:58:27.272Z,3.60
2023-01-04T08:59:27.275Z,3.55
2023-01-04T09:00:27.299Z,3.55
2023-01-04T09:01:27.607Z,3.58
2023-01-04T09:02:27.459Z,3.45
2023-01-04T09:03:27.308Z,3.45
2023-01-04T09:04:27.414Z,3.45
2023-01-04T09:05:27.328Z,3.55
2023-01-04T09:06:27.391Z,3.58
2023-01-04T09:07:27.346Z,3.52
2023-01-04T09:08:27.340Z,3.62
2023-01-04T09:09:27.344Z,3.66
2023-01-04T09:10:27.347Z,3.75
2023-01-04T09:11:27.359Z,3.84
2023-01-04T09:12:27.359Z,3.84
2023-01-04T09:13:27.378Z,3.84
2023-01-04T09:14:27.373Z,3.83
2023-01-04T09:15:27.390Z,3.86
2023-01-04T09:16:27.463Z,4.04
2023-01-04T09:17:27.412Z,3.97
2023-01-04T09:18:32.419Z,4.06
2023-01-04T09:19:27.413Z,4.06
2023-01-04T09:20:27.422Z,4.11
2023-01-04T09:21:27.466Z,4.22
2023-01-04T09:22:27.555Z,4.27
2023-01-04T09:23:27.431Z,4.33
2023-01-04T09:24:27.458Z,4.36
2023-01-04T09:25:27.446Z,4.55
2023-01-04T09:26:27.547Z,4.59
2023-01-04T09:27:27.459Z,4.65
2023-01-04T09:28:27.468Z,4.59
2023-01-04T09:29:27.490Z,4.55
2023-01-04T09:30:27.482Z,4.45
2023-01-04T09:31:27.674Z,4.50
2023-01-04T09:32:27.496Z,4.51
2023-01-04T09:33:47.767Z,4.48
2023-01-04T09:34:27.505Z,4.62
2023-01-04T09:35:27.525Z,4.60
2023-01-04T09:36:27.534Z,4.70
2023-01-04T09:37:27.529Z,4.65
2023-01-04T09:38:27.536Z,4.72
2023-01-04T09:39:27.562Z,4.70
2023-01-04T09:40:27.550Z,4.66
2023-01-04T09:41:27.581Z,4.62
2023-01-04T09:42:33.388Z,4.65
2023-01-04T09:43:27.566Z,4.55
2023-01-04T09:44:46.267Z,4.62
2023-01-04T09:45:27.577Z,4.60
2023-01-04T09:46:27.645Z,4.72
2023-01-04T09:47:27.594Z,4.92
2023-01-04T09:48:27.601Z,4.91
2023-01-04T09:49:27.622Z,4.92
2023-01-04T09:50:27.640Z,4.86
2023-01-04T09:51:27.620Z,5.06
2023-01-04T09:52:27.628Z,5.22
2023-01-04T09:53:27.633Z,5.13
2023-01-04T09:55:37.175Z,5.07
2023-01-04T09:56:27.663Z,5.03
2023-01-04T09:57:27.658Z,5.07
2023-01-04T09:58:27.670Z,5.33
2023-01-04T09:59:27.674Z,5.60
2023-01-04T10:00:27.749Z,5.78
2023-01-04T10:01:27.883Z,5.91
2023-01-04T10:02:27.932Z,6.00
2023-01-04T10:03:27.758Z,6.12
2023-01-04T10:04:27.737Z,6.18
2023-01-04T10:05:27.734Z,6.06
2023-01-04T10:06:27.744Z,6.28
2023-01-04T10:07:27.739Z,6.44
2023-01-04T10:08:27.750Z,6.66
2023-01-04T10:09:27.747Z,6.89
2023-01-04T10:10:27.891Z,6.79
2023-01-04T10:11:27.764Z,6.81
2023-01-04T10:12:27.776Z,6.79
2023-01-04T10:13:27.776Z,6.79
2023-01-04T10:14:27.795Z,6.69
2023-01-04T10:15:27.802Z,6.84
2023-01-04T10:17:01.206Z,6.76
2023-01-04T10:17:57.542Z,6.66
2023-01-04T10:19:50.421Z,6.66
2023-01-04T10:21:33.520Z,7.20
2023-01-04T10:22:27.848Z,7.35
2023-01-04T10:23:27.854Z,7.21
2023-01-04T10:24:27.868Z,7.02
2023-01-04T10:25:27.880Z,7.13
2023-01-04T10:26:27.883Z,7.30
2023-01-04T10:27:27.901Z,7.34
2023-01-04T10:28:27.900Z,7.39
2023-01-04T10:29:27.903Z,7.53
2023-01-04T10:30:27.917Z,7.40
2023-01-04T10:31:40.550Z,7.42
2023-01-04T10:32:27.995Z,7.50
2023-01-04T10:33:27.949Z,7.79
2023-01-04T10:34:27.956Z,7.87
2023-01-04T10:35:27.966Z,8.10
2023-01-04T10:36:28.003Z,8.18
2023-01-04T10:37:28.002Z,8.22
2023-01-04T10:38:27.986Z,7.57
2023-01-04T10:39:32.447Z,7.55
2023-01-04T10:40:28.022Z,7.50
2023-01-04T10:41:28.010Z,7.57
2023-01-04T10:42:28.017Z,7.52
2023-01-04T10:43:28.030Z,7.31
2023-01-04T10:44:28.037Z,7.53
2023-01-04T10:45:28.084Z,7.85
2023-01-04T10:46:28.132Z,8.04
2023-01-04T10:47:28.064Z,7.80
2023-01-04T10:48:28.072Z,8.12
2023-01-04T10:49:28.093Z,8.16
2023-01-04T10:50:28.145Z,7.87
2023-01-04T10:51:28.104Z,8.12
2023-01-04T10:52:28.111Z,7.80
2023-01-04T10:53:28.144Z,7.53
2023-01-04T10:54:28.127Z,7.13
2023-01-04T10:55:28.143Z,7.23
2023-01-04T10:56:28.183Z,7.16
2023-01-04T10:57:28.163Z,7.16
2023-01-04T10:58:28.169Z,7.20
2023-01-04T10:59:28.181Z,6.97
2023-01-04T11:00:28.185Z,7.21
2023-01-04T11:01:28.400Z,7.10
2023-01-04T11:02:28.308Z,6.94
2023-01-04T11:03:28.334Z,6.79
2023-01-04T11:04:28.223Z,6.80
2023-01-04T11:05:28.243Z,7.25
2023-01-04T11:06:28.241Z,6.61
2023-01-04T11:07:28.252Z,6.66
2023-01-04T11:08:28.263Z,6.76
2023-01-04T11:09:28.301Z,6.70
2023-01-04T11:10:28.274Z,6.38
2023-01-04T11:11:28.292Z,6.30
2023-01-04T11:12:28.296Z,6.56
2023-01-04T11:13:28.310Z,6.03
2023-01-04T11:14:33.293Z,6.38
2023-01-04T11:15:28.331Z,6.84
2023-01-04T11:16:28.442Z,6.94
2023-01-04T11:17:28.354Z,6.64
2023-01-04T11:18:28.352Z,6.59
2023-01-04T11:19:28.372Z,6.62
2023-01-04T11:20:30.583Z,6.33
2023-01-04T11:21:28.387Z,6.69
2023-01-04T11:22:28.502Z,6.76
2023-01-04T11:23:28.403Z,6.94
2023-01-04T11:24:32.837Z,7.16
2023-01-04T11:25:36.826Z,7.23
2023-01-04T11:26:28.427Z,7.45
2023-01-04T11:27:28.442Z,7.39
2023-01-04T11:28:28.459Z,6.98
2023-01-04T11:29:28.456Z,6.69
2023-01-04T11:30:28.468Z,6.59
2023-01-04T11:31:28.518Z,6.55
2023-01-04T11:32:28.482Z,6.44
2023-01-04T11:33:28.503Z,6.59
2023-01-04T11:34:28.504Z,6.80
2023-01-04T11:35:28.544Z,6.74
2023-01-04T11:36:28.519Z,6.79
2023-01-04T11:37:28.542Z,6.41
2023-01-04T11:38:28.546Z,6.69
2023-01-04T11:39:28.553Z,6.59
2023-01-04T11:40:28.558Z,6.81
2023-01-04T11:41:28.606Z,6.77
2023-01-04T11:42:28.592Z,6.99
2023-01-04T11:43:28.589Z,7.20
2023-01-04T11:44:28.596Z,6.99
2023-01-04T11:45:28.669Z,7.09
2023-01-04T11:46:28.757Z,7.31
2023-01-04T11:47:32.961Z,7.27
2023-01-04T11:48:28.633Z,6.87
2023-01-04T11:49:28.641Z,6.92
2023-01-04T11:50:28.654Z,6.89
2023-01-04T11:51:28.678Z,7.02
2023-01-04T11:52:28.671Z,7.02
2023-01-04T11:53:28.679Z,7.05
2023-01-04T11:54:28.687Z,7.03
2023-01-04T11:55:28.700Z,6.87
2023-01-04T11:56:28.705Z,6.59
2023-01-04T11:57:28.748Z,6.79
2023-01-04T11:58:28.721Z,6.98
2023-01-04T11:59:28.744Z,7.15
2023-01-04T12:00:28.744Z,6.94
2023-01-04T12:01:28.792Z,6.85
2023-01-04T12:03:00.009Z,6.95
2023-01-04T12:03:28.781Z,6.92
2023-01-04T12:04:29.040Z,6.66
2023-01-04T12:05:30.570Z,6.66
2023-01-04T12:06:28.801Z,6.62
2023-01-04T12:07:28.810Z,6.59
2023-01-04T12:08:28.816Z,6.79
2023-01-04T12:09:28.834Z,6.79
2023-01-04T12:10:28.857Z,6.76
2023-01-04T12:11:28.851Z,6.91
2023-01-04T12:12:28.857Z,7.02
2023-01-04T12:13:28.884Z,7.10
2023-01-04T12:14:28.879Z,7.24
2023-01-04T12:15:28.885Z,7.30
2023-01-04T12:16:28.901Z,7.37
2023-01-04T12:17:28.901Z,7.43
2023-01-04T12:18:29.028Z,7.34
2023-01-04T12:19:28.940Z,7.23
2023-01-04T12:20:28.939Z,7.16
2023-01-04T12:21:28.942Z,7.03
2023-01-04T12:22:28.948Z,6.92
2023-01-04T12:23:28.960Z,6.84
2023-01-04T12:24:28.965Z,6.89
2023-01-04T12:25:28.982Z,6.95
2023-01-04T12:26:28.985Z,6.98
2023-01-04T12:27:28.995Z,7.03
2023-01-04T12:28:29.006Z,6.97
2023-01-04T12:29:29.036Z,6.99
2023-01-04T12:30:29.027Z,7.15
2023-01-04T12:31:29.051Z,7.05
2023-01-04T12:32:29.037Z,6.92
2023-01-04T12:33:29.055Z,6.81
2023-01-04T12:34:29.059Z,6.85
2023-01-04T12:35:29.079Z,6.88
2023-01-04T12:36:29.076Z,6.99
2023-01-04T12:37:29.087Z,7.02
2023-01-04T12:38:29.094Z,7.06
2023-01-04T12:39:29.214Z,7.15
2023-01-04T12:40:29.142Z,7.21
2023-01-04T12:41:29.128Z,7.27
2023-01-04T12:42:29.141Z,7.42
2023-01-04T12:43:29.145Z,7.48
2023-01-04T12:44:29.151Z,7.50
2023-01-04T12:45:29.183Z,7.64
2023-01-04T12:46:29.215Z,7.53
2023-01-04T12:47:29.181Z,7.30
2023-01-04T12:48:29.194Z,7.28
2023-01-04T12:49:29.200Z,7.23
2023-01-04T12:50:29.215Z,7.13
2023-01-04T12:51:31.495Z,7.20
2023-01-04T12:52:37.797Z,7.17
2023-01-04T12:53:30.654Z,7.07
2023-01-04T12:54:29.243Z,7.06
2023-01-04T12:55:29.358Z,7.10
2023-01-04T12:56:29.264Z,7.16
2023-01-04T12:57:32.028Z,7.16
2023-01-04T12:58:58.053Z,7.07
2023-01-04T12:59:29.309Z,7.10
2023-01-04T13:00:29.311Z,6.98
2023-01-04T13:01:29.581Z,6.99
2023-01-04T13:02:29.536Z,7.02
2023-01-04T13:03:29.375Z,6.98
2023-01-04T13:04:29.350Z,7.12
2023-01-04T13:05:58.196Z,7.09
2023-01-04T13:06:29.354Z,7.09
2023-01-04T13:07:29.367Z,6.91
2023-01-04T13:08:29.372Z,6.59
2023-01-04T13:09:29.388Z,6.43
2023-01-04T13:10:29.389Z,6.18
2023-01-04T13:11:29.405Z,6.21
2023-01-04T13:12:29.411Z,6.12
2023-01-04T13:13:29.422Z,6.04
2023-01-04T13:14:29.431Z,5.91
2023-01-04T13:15:29.441Z,5.81
2023-01-04T13:16:29.564Z,5.75
2023-01-04T13:17:29.487Z,5.65
2023-01-04T13:18:29.568Z,5.78
2023-01-04T13:19:29.477Z,5.86
2023-01-04T13:20:29.491Z,5.90
2023-01-04T13:21:29.494Z,5.94